Bishopthorpe, United Kingdom
Current Conditions -  °F | °C
As of 6:50 PM on Saturday 25 Oct 2014 (Local Time) from EGXU Reporting Station
Broken Clouds Broken Clouds  
Wind Chill: 55°   Ceiling: 5000
Heat Index: 55°   Visibility: 6mi
Dew Point: 45°   Wind: 9mph
Humidity: 67%   Direction: 230°SW
Pressure: 29.91"   Gusts: NA
Location:  53.92°N, 1.1°W
Report Text: EGXU 251750Z AUTO 23008KT 9999 // BKN050/// 13/07 Q1013
Loading
Personal Weather Stations






























Interactive Weather Map
Tropical Storm Tracking
New forecast layout! Learn more

10-Day Weather Forecast

Advertisements
Track Severe Weather on mobile